Time,TemperatureF,DewpointF,PressureIn,WindDirection,WindDirectionDegrees,WindSpeedMPH,WindSpeedGustMPH,Humidity,HourlyPrecipIn,Conditions,Clouds,dailyrainin,SoftwareType,DateUTC
2013-03-21 00:03:00,21.0,12.0,30.09,NW,317,13.0,18.0,68,0.00,,,0.00,,2013-03-21 04:03:00,
2013-03-21 00:13:00,21.0,12.0,30.09,NW,317,13.0,18.0,68,0.00,,,0.00,,2013-03-21 04:13:00,
2013-03-21 00:23:00,21.0,12.0,30.09,NW,321,10.0,17.0,69,0.00,,,0.00,,2013-03-21 04:23:00,
2013-03-21 00:33:00,21.0,13.0,30.08,NNW,329,11.0,16.0,71,0.00,,,0.00,,2013-03-21 04:33:00,
2013-03-21 00:43:00,21.0,13.0,30.08,NNW,329,11.0,16.0,71,0.00,,,0.00,,2013-03-21 04:43:00,
2013-03-21 00:53:00,20.0,12.0,30.08,NW,326,11.0,17.0,72,0.00,,,0.00,,2013-03-21 04:53:00,
2013-03-21 01:03:00,20.0,12.0,30.09,NW,306,8.0,15.0,72,0.00,,,0.00,,2013-03-21 05:03:00,
2013-03-21 01:12:00,20.0,12.0,30.09,NW,306,8.0,15.0,72,0.00,,,0.00,,2013-03-21 05:12:00,
2013-03-21 01:22:00,20.0,16.0,30.09,NNW,327,8.0,13.0,83,0.00,,,0.00,,2013-03-21 05:22:00,
2013-03-21 01:32:00,19.0,16.0,30.09,NNW,333,6.0,15.0,87,0.00,,,0.00,,2013-03-21 05:32:00,
2013-03-21 01:43:00,19.0,16.0,30.09,NNW,333,6.0,15.0,87,0.00,,,0.00,,2013-03-21 05:43:00,
2013-03-21 01:52:00,19.0,16.0,30.09,NNW,327,6.0,13.0,86,0.00,,,0.00,,2013-03-21 05:52:00,
2013-03-21 02:03:00,19.0,14.0,30.08,NNW,336,11.0,16.0,82,0.00,,,0.00,,2013-03-21 06:03:00,
2013-03-21 02:12:00,19.0,14.0,30.08,NNW,336,11.0,16.0,82,0.00,,,0.00,,2013-03-21 06:12:00,
2013-03-21 02:22:00,19.0,14.0,30.08,NW,309,0.0,13.0,81,0.00,,,0.00,,2013-03-21 06:22:00,
2013-03-21 02:32:00,19.0,13.0,30.07,NW,313,0.0,0.0,78,0.00,,,0.00,,2013-03-21 06:32:00,
2013-03-21 02:42:00,19.0,13.0,30.07,NW,313,0.0,0.0,78,0.00,,,0.00,,2013-03-21 06:42:00,
2013-03-21 02:52:00,19.0,14.0,30.08,NNW,328,0.0,0.0,79,0.00,,,0.00,,2013-03-21 06:52:00,
2013-03-21 03:02:00,18.0,13.0,30.08,NNW,341,0.0,0.0,79,0.00,,,0.00,,2013-03-21 07:02:00,
2013-03-21 03:12:00,18.0,13.0,30.08,NNW,341,0.0,0.0,79,0.00,,,0.00,,2013-03-21 07:12:00,
2013-03-21 03:22:00,17.0,12.0,30.07,NW,313,0.0,0.0,81,0.00,,,0.00,,2013-03-21 07:22:00,
2013-03-21 03:32:00,17.0,12.0,30.07,NW,318,0.0,0.0,81,0.00,,,0.00,,2013-03-21 07:32:00,
2013-03-21 03:42:00,17.0,12.0,30.07,NW,318,0.0,0.0,81,0.00,,,0.00,,2013-03-21 07:42:00,
2013-03-21 03:52:00,17.0,12.0,30.08,NW,320,0.0,0.0,82,0.00,,,0.00,,2013-03-21 07:52:00,
2013-03-21 04:02:00,16.0,11.0,30.08,NW,323,0.0,0.0,82,0.00,,,0.00,,2013-03-21 08:02:00,
2013-03-21 04:13:00,16.0,11.0,30.08,NW,323,0.0,0.0,82,0.00,,,0.00,,2013-03-21 08:13:00,
2013-03-21 04:23:00,15.0,11.0,30.07,NNW,330,0.0,0.0,82,0.00,,,0.00,,2013-03-21 08:23:00,
2013-03-21 04:33:00,15.0,11.0,30.08,NW,314,0.0,0.0,82,0.00,,,0.00,,2013-03-21 08:33:00,
2013-03-21 04:42:00,15.0,11.0,30.08,NW,314,0.0,0.0,82,0.00,,,0.00,,2013-03-21 08:42:00,
2013-03-21 04:52:00,15.0,11.0,30.07,NW,304,0.0,0.0,83,0.00,,,0.00,,2013-03-21 08:52:00,
2013-03-21 05:02:00,14.0,10.0,30.07,NW,319,0.0,0.0,83,0.00,,,0.00,,2013-03-21 09:02:00,
2013-03-21 05:11:00,14.0,10.0,30.07,NW,319,0.0,0.0,83,0.00,,,0.00,,2013-03-21 09:11:00,
2013-03-21 05:21:00,14.0,10.0,30.07,NW,317,0.0,0.0,84,0.00,,,0.00,,2013-03-21 09:21:00,
2013-03-21 05:33:00,14.0,10.0,30.07,NNW,333,0.0,0.0,84,0.00,,,0.00,,2013-03-21 09:33:00,
2013-03-21 05:43:00,14.0,10.0,30.07,NNW,333,0.0,0.0,84,0.00,,,0.00,,2013-03-21 09:43:00,
2013-03-21 05:53:00,14.0,10.0,30.07,NW,323,0.0,0.0,83,0.00,,,0.00,,2013-03-21 09:53:00,
2013-03-21 06:03:00,14.0,10.0,30.07,NW,306,0.0,0.0,83,0.00,,,0.00,,2013-03-21 10:03:00,
2013-03-21 06:12:00,14.0,10.0,30.07,NW,306,0.0,0.0,83,0.00,,,0.00,,2013-03-21 10:12:00,
2013-03-21 06:22:00,13.0,9.0,30.07,NW,304,0.0,0.0,84,0.00,,,0.00,,2013-03-21 10:22:00,
2013-03-21 06:33:00,12.0,9.0,30.07,NW,316,0.0,0.0,86,0.00,,,0.00,,2013-03-21 10:33:00,
2013-03-21 06:42:00,12.0,9.0,30.07,NW,316,0.0,0.0,86,0.00,,,0.00,,2013-03-21 10:42:00,
2013-03-21 06:53:00,13.0,9.0,30.07,NW,321,0.0,0.0,85,0.00,,,0.00,,2013-03-21 10:53:00,
2013-03-21 07:03:00,13.0,9.0,30.07,WNW,303,0.0,0.0,83,0.00,,,0.00,,2013-03-21 11:03:00,
2013-03-21 07:12:00,13.0,9.0,30.07,WNW,303,0.0,0.0,83,0.00,,,0.00,,2013-03-21 11:12:00,
2013-03-21 07:22:00,13.0,9.0,30.08,NW,311,0.0,0.0,83,0.00,,,0.00,,2013-03-21 11:22:00,
2013-03-21 07:33:00,13.0,9.0,30.08,NW,304,0.0,0.0,83,0.00,,,0.00,,2013-03-21 11:33:00,
2013-03-21 07:43:00,13.0,9.0,30.08,NW,304,0.0,0.0,83,0.00,,,0.00,,2013-03-21 11:43:00,
2013-03-21 07:52:00,11.0,7.0,30.09,WNW,302,0.0,0.0,84,0.00,,,0.00,,2013-03-21 11:52:00,
2013-03-21 08:02:00,12.0,8.0,30.09,NW,306,0.0,0.0,83,0.00,,,0.00,,2013-03-21 12:02:00,
2013-03-21 08:12:00,12.0,8.0,30.09,NW,306,0.0,0.0,83,0.00,,,0.00,,2013-03-21 12:12:00,
2013-03-21 08:22:00,12.0,8.0,30.09,WNW,302,0.0,0.0,83,0.00,,,0.00,,2013-03-21 12:22:00,
2013-03-21 08:33:00,13.0,9.0,30.09,NW,306,0.0,0.0,83,0.00,,,0.00,,2013-03-21 12:33:00,
2013-03-21 08:42:00,13.0,9.0,30.09,NW,306,0.0,0.0,83,0.00,,,0.00,,2013-03-21 12:42:00,
2013-03-21 08:52:00,13.0,9.0,30.09,WNW,286,0.0,0.0,83,0.00,,,0.00,,2013-03-21 12:52:00,
2013-03-21 09:02:00,14.0,10.0,30.09,NW,319,0.0,0.0,84,0.00,,,0.00,,2013-03-21 13:02:00,
2013-03-21 09:12:00,14.0,10.0,30.09,NW,319,0.0,0.0,84,0.00,,,0.00,,2013-03-21 13:12:00,
2013-03-21 09:22:00,15.0,11.0,30.10,NW,322,0.0,0.0,82,0.00,,,0.00,,2013-03-21 13:22:00,
2013-03-21 09:32:00,16.0,11.0,30.09,NW,309,0.0,0.0,81,0.00,,,0.00,,2013-03-21 13:32:00,
2013-03-21 09:42:00,16.0,11.0,30.09,NW,309,0.0,0.0,81,0.00,,,0.00,,2013-03-21 13:42:00,
2013-03-21 09:52:00,17.0,12.0,30.09,NW,305,0.0,0.0,80,0.00,,,0.00,,2013-03-21 13:52:00,
2013-03-21 10:02:00,18.0,13.0,30.09,WNW,286,0.0,0.0,79,0.00,,,0.00,,2013-03-21 14:02:00,
2013-03-21 10:12:00,19.0,14.0,30.10,NW,325,0.0,0.0,79,0.00,,,0.00,,2013-03-21 14:12:00,
2013-03-21 10:22:00,19.0,14.0,30.10,NW,325,0.0,0.0,79,0.00,,,0.00,,2013-03-21 14:22:00,
2013-03-21 10:32:00,20.0,14.0,30.10,NW,308,0.0,0.0,78,0.00,,,0.00,,2013-03-21 14:32:00,
2013-03-21 10:42:00,20.0,14.0,30.10,NW,308,0.0,0.0,78,0.00,,,0.00,,2013-03-21 14:42:00,
2013-03-21 10:52:00,20.0,14.0,30.10,WNW,292,0.0,0.0,77,0.00,,,0.00,,2013-03-21 14:52:00,
2013-03-21 11:03:00,22.0,16.0,30.11,NW,313,0.0,0.0,76,0.00,,,0.00,,2013-03-21 15:03:00,
2013-03-21 11:12:00,22.0,16.0,30.11,NW,313,0.0,0.0,76,0.00,,,0.00,,2013-03-21 15:12:00,
2013-03-21 11:22:00,22.0,15.0,30.11,NW,318,0.0,0.0,74,0.00,,,0.00,,2013-03-21 15:22:00,
2013-03-21 11:33:00,23.0,15.0,30.11,WNW,288,0.0,0.0,72,0.00,,,0.00,,2013-03-21 15:33:00,
2013-03-21 11:42:00,23.0,15.0,30.11,WNW,288,0.0,0.0,72,0.00,,,0.00,,2013-03-21 15:42:00,
2013-03-21 11:53:00,23.0,15.0,30.11,WNW,288,0.0,0.0,72,0.00,,,0.00,,2013-03-21 15:53:00,
2013-03-21 12:03:00,24.0,14.0,30.11,WNW,294,0.0,0.0,64,0.00,,,0.00,,2013-03-21 16:03:00,
2013-03-21 12:12:00,24.0,14.0,30.11,WNW,294,0.0,0.0,64,0.00,,,0.00,,2013-03-21 16:12:00,
2013-03-21 12:23:00,26.0,13.0,30.11,NNW,342,0.0,0.0,58,0.00,,,0.00,,2013-03-21 16:23:00,
2013-03-21 12:33:00,27.0,13.0,30.11,NW,310,0.0,0.0,55,0.00,,,0.00,,2013-03-21 16:33:00,
2013-03-21 12:42:00,27.0,13.0,30.11,NW,310,0.0,0.0,55,0.00,,,0.00,,2013-03-21 16:42:00,
2013-03-21 12:52:00,28.0,13.0,30.11,West,279,0.0,0.0,52,0.00,,,0.00,,2013-03-21 16:52:00,
2013-03-21 13:02:00,28.0,11.0,30.11,WNW,282,0.0,0.0,49,0.00,,,0.00,,2013-03-21 17:02:00,
2013-03-21 13:12:00,28.0,11.0,30.11,WNW,282,0.0,0.0,49,0.00,,,0.00,,2013-03-21 17:12:00,
2013-03-21 13:23:00,29.0,10.0,30.10,NW,315,0.0,0.0,44,0.00,,,0.00,,2013-03-21 17:23:00,
2013-03-21 13:32:00,30.0,11.0,30.10,West,275,0.0,0.0,45,0.00,,,0.00,,2013-03-21 17:32:00,
2013-03-21 13:42:00,30.0,11.0,30.10,West,275,0.0,0.0,45,0.00,,,0.00,,2013-03-21 17:42:00,
2013-03-21 13:52:00,30.0,9.0,30.10,WSW,250,0.0,0.0,41,0.00,,,0.00,,2013-03-21 17:52:00,
2013-03-21 14:02:00,30.0,10.0,30.10,NNW,334,0.0,0.0,43,0.00,,,0.00,,2013-03-21 18:02:00,
2013-03-21 14:12:00,30.0,10.0,30.10,NNW,334,0.0,0.0,43,0.00,,,0.00,,2013-03-21 18:12:00,
2013-03-21 14:23:00,31.0,10.0,30.09,WNW,294,0.0,0.0,41,0.00,,,0.00,,2013-03-21 18:23:00,
2013-03-21 14:32:00,32.0,12.0,30.09,WSW,242,0.0,0.0,42,0.00,,,0.00,,2013-03-21 18:32:00,
2013-03-21 14:42:00,32.0,12.0,30.09,WSW,242,0.0,0.0,42,0.00,,,0.00,,2013-03-21 18:42:00,
2013-03-21 14:52:00,32.0,12.0,30.09,NW,311,0.0,0.0,42,0.00,,,0.00,,2013-03-21 18:52:00,
2013-03-21 15:02:00,32.0,13.0,30.09,WNW,302,0.0,0.0,44,0.00,,,0.00,,2013-03-21 19:02:00,
2013-03-21 15:12:00,32.0,13.0,30.09,WNW,302,0.0,0.0,44,0.00,,,0.00,,2013-03-21 19:12:00,
2013-03-21 15:22:00,32.0,11.0,30.08,NW,312,0.0,0.0,41,0.00,,,0.00,,2013-03-21 19:22:00,
2013-03-21 15:32:00,33.0,12.0,30.08,West,271,0.0,0.0,41,0.00,,,0.00,,2013-03-21 19:32:00,
2013-03-21 15:42:00,33.0,12.0,30.08,West,271,0.0,0.0,41,0.00,,,0.00,,2013-03-21 19:42:00,
2013-03-21 15:52:00,34.0,13.0,30.07,WNW,300,0.0,0.0,42,0.00,,,0.00,,2013-03-21 19:52:00,
2013-03-21 16:02:00,34.0,12.0,30.07,West,277,0.0,0.0,40,0.00,,,0.00,,2013-03-21 20:02:00,
2013-03-21 16:12:00,34.0,12.0,30.07,West,277,0.0,0.0,40,0.00,,,0.00,,2013-03-21 20:12:00,
2013-03-21 16:22:00,35.0,13.0,30.07,WNW,292,0.0,0.0,39,0.00,,,0.00,,2013-03-21 20:22:00,
2013-03-21 16:33:00,34.0,12.0,30.07,West,275,0.0,0.0,40,0.00,,,0.00,,2013-03-21 20:33:00,
2013-03-21 16:42:00,34.0,12.0,30.07,West,275,0.0,0.0,40,0.00,,,0.00,,2013-03-21 20:42:00,
2013-03-21 16:52:00,35.0,14.0,30.06,West,276,0.0,0.0,41,0.00,,,0.00,,2013-03-21 20:52:00,
2013-03-21 17:02:00,35.0,13.0,30.06,WNW,298,0.0,0.0,40,0.00,,,0.00,,2013-03-21 21:02:00,
2013-03-21 17:12:00,35.0,13.0,30.06,WNW,298,0.0,0.0,40,0.00,,,0.00,,2013-03-21 21:12:00,
2013-03-21 17:22:00,35.0,13.0,30.06,NW,319,8.0,15.0,40,0.00,,,0.00,,2013-03-21 21:22:00,
2013-03-21 17:33:00,35.0,14.0,30.05,WNW,298,7.0,12.0,42,0.00,,,0.00,,2013-03-21 21:33:00,
2013-03-21 17:43:00,35.0,14.0,30.05,WNW,298,7.0,12.0,42,0.00,,,0.00,,2013-03-21 21:43:00,
2013-03-21 17:53:00,35.0,13.0,30.05,West,279,6.0,13.0,39,0.00,,,0.00,,2013-03-21 21:53:00,
2013-03-21 18:03:00,35.0,14.0,30.05,WNW,290,5.0,12.0,41,0.00,,,0.00,,2013-03-21 22:03:00,
2013-03-21 18:13:00,35.0,14.0,30.05,WNW,290,5.0,12.0,41,0.00,,,0.00,,2013-03-21 22:13:00,
2013-03-21 18:23:00,35.0,15.0,30.04,NW,304,9.0,14.0,44,0.00,,,0.00,,2013-03-21 22:23:00,
2013-03-21 18:33:00,35.0,15.0,30.04,WNW,283,9.0,15.0,44,0.00,,,0.00,,2013-03-21 22:33:00,
2013-03-21 18:42:00,35.0,15.0,30.04,WNW,283,9.0,15.0,44,0.00,,,0.00,,2013-03-21 22:42:00,
2013-03-21 18:52:00,35.0,16.0,30.05,NW,324,7.0,13.0,45,0.00,,,0.00,,2013-03-21 22:52:00,
2013-03-21 19:02:00,34.0,15.0,30.05,NW,306,7.0,13.0,46,0.00,,,0.00,,2013-03-21 23:02:00,
2013-03-21 19:12:00,34.0,15.0,30.05,NW,306,7.0,13.0,46,0.00,,,0.00,,2013-03-21 23:12:00,
2013-03-21 19:22:00,34.0,15.0,30.05,NNW,327,5.0,12.0,46,0.00,,,0.00,,2013-03-21 23:22:00,
2013-03-21 19:32:00,33.0,15.0,30.05,NW,324,6.0,11.0,48,0.00,,,0.00,,2013-03-21 23:32:00,
2013-03-21 19:42:00,33.0,15.0,30.05,NW,324,6.0,11.0,48,0.00,,,0.00,,2013-03-21 23:42:00,
2013-03-21 19:52:00,33.0,15.0,30.05,NNW,346,4.0,8.0,48,0.00,,,0.00,,2013-03-21 23:52:00,
2013-03-21 20:02:00,32.0,15.0,30.05,NW,323,4.0,7.0,50,0.00,,,0.00,,2013-03-22 00:02:00,
2013-03-21 20:12:00,32.0,15.0,30.05,NW,323,4.0,7.0,50,0.00,,,0.00,,2013-03-22 00:12:00,
2013-03-21 20:22:00,31.0,16.0,30.06,NW,325,3.0,5.0,54,0.00,,,0.00,,2013-03-22 00:22:00,
2013-03-21 20:32:00,30.0,17.0,30.06,NNW,333,1.0,4.0,57,0.00,,,0.00,,2013-03-22 00:32:00,
2013-03-21 20:42:00,30.0,17.0,30.06,NNW,333,1.0,4.0,57,0.00,,,0.00,,2013-03-22 00:42:00,
2013-03-21 20:52:00,29.0,16.0,30.06,NNW,338,1.0,3.0,58,0.00,,,0.00,,2013-03-22 00:52:00,
2013-03-21 21:02:00,29.0,16.0,30.06,NNW,338,1.0,3.0,58,0.00,,,0.00,,2013-03-22 01:02:00,
2013-03-21 21:12:00,29.0,16.0,30.06,NNW,338,1.0,3.0,58,0.00,,,0.00,,2013-03-22 01:12:00,
2013-03-21 21:22:00,27.0,18.0,30.06,NNW,329,0.0,1.0,67,0.00,,,0.00,,2013-03-22 01:22:00,
2013-03-21 21:32:00,26.0,17.0,30.07,NNW,329,0.0,0.0,69,0.00,,,0.00,,2013-03-22 01:32:00,
2013-03-21 21:43:00,26.0,17.0,30.07,NNW,329,0.0,0.0,69,0.00,,,0.00,,2013-03-22 01:43:00,
2013-03-21 21:52:00,25.0,17.0,30.07,NNW,329,0.0,0.0,70,0.00,,,0.00,,2013-03-22 01:52:00,
2013-03-21 22:02:00,25.0,17.0,30.07,NNW,329,0.0,0.0,71,0.00,,,0.00,,2013-03-22 02:02:00,
2013-03-21 22:12:00,25.0,17.0,30.07,NNW,329,0.0,0.0,71,0.00,,,0.00,,2013-03-22 02:12:00,
2013-03-21 22:22:00,24.0,17.0,30.07,NNW,329,0.0,0.0,73,0.00,,,0.00,,2013-03-22 02:22:00,
2013-03-21 22:32:00,24.0,17.0,30.07,NNW,329,0.0,0.0,73,0.00,,,0.00,,2013-03-22 02:32:00,
2013-03-21 22:43:00,24.0,17.0,30.07,NNW,329,0.0,0.0,73,0.00,,,0.00,,2013-03-22 02:43:00,
2013-03-21 22:52:00,23.0,17.0,30.07,NNW,329,0.0,0.0,79,0.00,,,0.00,,2013-03-22 02:52:00,
2013-03-21 23:02:00,23.0,17.0,30.08,NNW,329,0.0,0.0,76,0.00,,,0.00,,2013-03-22 03:02:00,
2013-03-21 23:12:00,23.0,17.0,30.08,NNW,329,0.0,0.0,76,0.00,,,0.00,,2013-03-22 03:12:00,
2013-03-21 23:22:00,22.0,16.0,30.08,NNW,329,0.0,0.0,77,0.00,,,0.00,,2013-03-22 03:22:00,
2013-03-21 23:33:00,22.0,16.0,30.08,NNW,329,0.0,0.0,77,0.00,,,0.00,,2013-03-22 03:33:00,
2013-03-21 23:43:00,22.0,16.0,30.08,NNW,329,0.0,0.0,77,0.00,,,0.00,,2013-03-22 03:43:00,
2013-03-21 23:52:00,22.0,17.0,30.08,NNW,329,0.0,0.0,80,0.00,,,0.00,,2013-03-22 03:52:00,